Time;durP1;ratioP1;P1;durP2;ratioP2;P2;SDS_P1;SDS_P2;PMS_P1;PMS_P2;Temp;Humidity;BMP_temperature;BMP_pressure;BME280_temperature;BME280_humidity;BME280_pressure;Samples;Min_cycle;Max_cycle;Signal;HPM_P1;HPM_P2
2023/04/11 00:02:03;;;;;;;40.90;9.10;;;11.20;99.90;;;11.38;93.45;100678.66;4995410;28;20403;-66
2023/04/11 00:04:32;;;;;;;49.33;9.23;;;11.10;99.90;;;11.35;94.19;100690.16;4996475;28;20047;-67
2023/04/11 00:07:02;;;;;;;53.50;10.20;;;11.10;99.90;;;11.43;94.24;100682.13;4996173;28;20149;-67
2023/04/11 00:09:31;;;;;;;45.25;9.82;;;11.10;99.90;;;11.11;93.98;100655.97;4996366;28;20038;-66
2023/04/11 00:12:00;;;;;;;43.83;9.65;;;11.00;99.90;;;11.39;94.07;100702.47;4996312;28;20149;-66
2023/04/11 00:14:31;;;;;;;70.35;10.90;;;11.10;99.90;;;11.39;93.99;100697.19;4996283;28;20045;-66
2023/04/11 00:16:59;;;;;;;46.55;9.52;;;11.10;99.90;;;11.32;94.09;100684.91;4996377;28;20046;-66
2023/04/11 00:19:28;;;;;;;42.10;9.60;;;11.10;99.90;;;11.40;93.95;100688.31;4995860;28;20057;-66
2023/04/11 00:21:57;;;;;;;38.08;9.50;;;11.10;99.90;;;11.54;93.64;100689.06;4996112;28;20069;-66
2023/04/11 00:24:27;;;;;;;43.20;8.65;;;11.20;99.90;;;11.57;93.26;100686.41;4995862;28;20057;-66
2023/04/11 00:26:57;;;;;;;46.85;9.25;;;11.20;99.90;;;11.55;92.74;100688.19;4994811;28;20046;-66
2023/04/11 00:29:25;;;;;;;35.97;9.10;;;11.30;99.90;;;11.60;92.83;100696.94;4994793;28;20444;-66
2023/04/11 00:31:55;;;;;;;36.38;8.50;;;11.30;99.90;;;11.58;92.48;100697.84;4995720;28;20730;-66
2023/04/11 00:34:23;;;;;;;38.40;8.77;;;11.30;99.90;;;11.72;92.31;100712.75;4995751;28;20042;-66
2023/04/11 00:36:52;;;;;;;41.22;10.13;;;11.40;99.90;;;11.62;92.11;100705.75;4995604;28;20038;-66
2023/04/11 00:39:21;;;;;;;44.35;9.10;;;11.30;99.90;;;11.58;92.26;100704.03;4995456;28;20507;-66
2023/04/11 00:41:51;;;;;;;42.55;9.50;;;11.30;99.90;;;11.58;92.62;100705.78;4995713;28;20046;-66
2023/04/11 00:44:19;;;;;;;41.15;9.68;;;11.30;99.90;;;11.65;92.36;100708.38;4994498;28;20448;-66
2023/04/11 00:46:47;;;;;;;38.40;8.30;;;11.30;99.90;;;11.56;91.85;100695.22;4994366;28;20042;-66
2023/04/11 00:49:16;;;;;;;43.08;9.15;;;11.30;99.90;;;11.58;91.87;100711.97;4995976;28;20105;-66
2023/04/11 00:51:44;;;;;;;41.10;9.10;;;11.30;99.90;;;11.60;91.31;100709.31;4995358;28;20050;-66
2023/04/11 00:54:13;;;;;;;30.45;7.03;;;11.30;99.90;;;11.59;90.26;100705.75;4994267;28;20117;-66
2023/04/11 00:56:41;;;;;;;36.15;8.05;;;11.30;99.90;;;11.71;89.41;100716.25;4995281;28;20041;-66
2023/04/11 00:59:11;;;;;;;30.75;8.07;;;11.40;99.90;;;11.61;88.27;100711.06;4993970;28;20058;-66
2023/04/11 01:01:40;;;;;;;25.27;6.93;;;11.40;99.90;;;11.63;87.11;100709.28;4995263;28;20064;-66
2023/04/11 01:04:09;;;;;;;22.77;6.20;;;11.30;99.90;;;11.66;85.77;100707.50;4994118;28;20062;-66
2023/04/11 01:06:38;;;;;;;23.52;6.40;;;11.40;99.90;;;11.62;84.50;100700.44;4994134;28;20046;-66
2023/04/11 01:09:07;;;;;;;18.80;6.55;;;11.40;99.90;;;11.60;83.38;100706.66;4994083;28;20050;-66
2023/04/11 01:11:36;;;;;;;28.58;6.55;;;11.40;99.90;;;11.76;83.31;100722.41;4995448;28;20133;-66
2023/04/11 01:14:05;;;;;;;20.80;5.90;;;11.50;99.90;;;11.74;83.31;100716.25;4994657;28;20042;-66
2023/04/11 01:16:35;;;;;;;25.27;6.05;;;11.50;99.90;;;11.74;82.74;100724.19;4994884;28;20511;-66
2023/04/11 01:19:04;;;;;;;22.08;7.07;;;11.50;99.90;;;11.62;81.78;100736.66;4993864;28;20042;-66
2023/04/11 01:21:35;;;;;;;18.13;6.35;;;11.40;99.90;;;11.54;80.85;100725.25;4995048;28;20042;-66
2023/04/11 01:24:05;;;;;;;16.38;6.10;;;11.40;99.90;;;11.57;80.98;100720.84;4995145;28;20042;-66
2023/04/11 01:26:34;;;;;;;20.88;5.88;;;11.30;99.90;;;11.49;80.80;100722.69;4995075;28;20046;-66
2023/04/11 01:29:03;;;;;;;24.70;5.82;;;11.30;99.90;;;11.56;80.69;100719.06;4994961;28;20062;-66
2023/04/11 01:31:31;;;;;;;25.40;6.18;;;11.30;99.90;;;11.56;80.25;100719.06;4994388;28;20059;-66
2023/04/11 01:34:00;;;;;;;25.83;6.65;;;11.30;99.90;;;11.61;80.52;100716.38;4993579;28;20045;-66
2023/04/11 01:36:29;;;;;;;23.13;6.20;;;11.30;99.90;;;11.54;80.59;100723.50;4994759;28;20467;-66
2023/04/11 01:38:58;;;;;;;26.73;6.15;;;11.30;99.90;;;11.60;80.62;100730.50;4993517;28;20070;-66
2023/04/11 01:41:31;;;;;;;21.70;6.45;;;11.40;99.90;;;11.52;80.38;100730.56;4993357;28;20049;-66
2023/04/11 01:44:00;;;;;;;20.90;5.78;;;11.40;99.90;;;11.54;80.36;100727.91;4993343;28;20053;-66
2023/04/11 01:46:28;;;;;;;26.58;6.20;;;11.30;99.90;;;11.36;80.17;100723.66;4994441;28;20133;-66
2023/04/11 01:48:59;;;;;;;23.08;6.40;;;11.30;99.90;;;11.43;80.57;100730.69;4993269;28;20105;-66
2023/04/11 01:51:28;;;;;;;22.15;6.25;;;11.20;99.90;;;11.47;80.64;100732.41;4993260;28;20065;-66
2023/04/11 01:53:56;;;;;;;25.88;6.22;;;11.20;99.90;;;11.44;80.58;100750.97;4994257;28;20040;-66
2023/04/11 01:56:25;;;;;;;26.88;6.50;;;11.20;99.90;;;11.43;81.29;100756.28;4993080;28;20112;-66
2023/04/11 01:58:57;;;;;;;21.38;5.95;;;11.20;99.90;;;11.37;81.25;100751.94;4993348;28;20453;-66
2023/04/11 02:01:26;;;;;;;18.60;5.90;;;11.20;99.90;;;11.40;81.34;100764.28;4993066;28;20054;-66
2023/04/11 02:03:54;;;;;;;26.52;6.03;;;11.10;99.90;;;11.28;80.90;100752.03;4994220;28;20094;-66
2023/04/11 02:06:23;;;;;;;20.27;6.05;;;11.10;99.90;;;11.23;81.48;100764.41;4994548;28;20065;-66
2023/04/11 02:08:51;;;;;;;21.55;5.80;;;11.00;99.90;;;11.28;82.05;100767.03;4992912;28;20576;-66
2023/04/11 02:11:21;;;;;;;23.35;5.60;;;11.00;99.90;;;11.21;82.30;100774.13;4992904;28;20074;-66
2023/04/11 02:13:50;;;;;;;31.35;7.40;;;11.00;99.90;;;11.26;82.64;100774.09;4993857;28;20488;-66
2023/04/11 02:16:24;;;;;;;25.67;6.55;;;11.00;99.90;;;11.11;83.24;100767.16;4993778;28;20085;-66
2023/04/11 02:18:53;;;;;;;25.48;6.90;;;10.90;99.90;;;11.14;83.64;100769.78;4994073;28;20044;-66
2023/04/11 02:21:22;;;;;;;21.85;6.28;;;10.90;99.90;;;11.03;83.33;100770.78;4994004;28;20038;-66
2023/04/11 02:23:50;;;;;;;25.60;5.95;;;10.90;99.90;;;10.99;83.44;100774.31;4992681;28;20046;-66
2023/04/11 02:26:20;;;;;;;25.52;6.75;;;10.80;99.90;;;11.06;83.32;100783.97;4993983;28;20392;-66
2023/04/11 02:28:49;;;;;;;23.48;6.22;;;10.80;99.90;;;10.96;83.08;100774.34;4993856;28;20074;-66
2023/04/11 02:31:17;;;;;;;23.35;6.60;;;10.70;99.90;;;10.97;83.34;100778.75;4993476;28;20523;-66
2023/04/11 02:33:47;;;;;;;20.42;5.93;;;10.70;99.90;;;10.99;83.66;100782.25;4993827;28;20046;-66
2023/04/11 02:36:15;;;;;;;27.60;6.50;;;10.70;99.90;;;11.06;83.61;100782.19;4993837;28;20129;-66
2023/04/11 02:38:44;;;;;;;29.30;6.63;;;10.80;99.90;;;10.94;84.11;100784.94;4992502;28;20081;-66
2023/04/11 02:41:12;;;;;;;29.48;7.13;;;10.70;99.90;;;10.93;83.98;100787.59;4994019;28;20077;-66
2023/04/11 02:43:40;;;;;;;25.30;6.70;;;10.70;99.90;;;10.92;83.87;100789.34;4993676;28;20041;-66
2023/04/11 02:46:09;;;;;;;24.65;6.32;;;10.70;99.90;;;10.94;83.87;100787.56;4992664;28;20100;-66
2023/04/11 02:48:43;;;;;;;24.30;6.28;;;10.70;99.90;;;10.86;83.83;100776.16;4992413;28;20058;-66
2023/04/11 02:51:14;;;;;;;28.17;6.30;;;10.70;99.90;;;10.89;83.91;100784.09;4992366;28;20074;-66
2023/04/11 02:53:43;;;;;;;27.27;6.47;;;10.60;99.90;;;10.64;83.85;100759.59;4993351;28;20046;-66
2023/04/11 02:56:17;;;;;;;22.42;6.90;;;10.60;99.90;;;10.79;84.19;100785.03;4992030;28;20316;-66
2023/04/11 02:58:48;;;;;;;24.33;6.68;;;10.60;99.90;;;10.84;84.56;100791.19;4992307;28;20069;-66
2023/04/11 03:01:20;;;;;;;24.77;5.95;;;10.60;99.90;;;10.77;84.27;100792.13;4992267;28;20046;-66
2023/04/11 03:03:48;;;;;;;20.70;6.13;;;10.60;99.90;;;10.80;84.10;100786.81;4993197;28;20484;-66
2023/04/11 03:06:19;;;;;;;21.65;5.60;;;10.60;99.90;;;10.80;84.08;100794.75;4992179;28;20492;-66
2023/04/11 03:08:51;;;;;;;22.95;6.15;;;10.60;99.90;;;10.75;83.81;100788.59;4992133;28;20074;-66
2023/04/11 03:11:20;;;;;;;19.95;5.80;;;10.60;99.90;;;10.76;83.49;100804.44;4993452;28;20049;-66
2023/04/11 03:13:49;;;;;;;16.13;5.10;;;10.60;99.90;;;10.69;82.20;100788.63;4993386;28;20047;-66
2023/04/11 03:16:18;;;;;;;13.68;5.13;;;10.50;99.90;;;10.61;81.33;100807.19;4992265;28;20522;-66
2023/04/11 03:18:47;;;;;;;16.65;5.15;;;10.40;99.90;;;10.57;80.81;100796.63;4993375;28;20042;-66
2023/04/11 03:21:15;;;;;;;17.02;5.72;;;10.40;99.90;;;10.41;80.91;100800.28;4991799;28;20046;-66
2023/04/11 03:23:46;;;;;;;20.83;5.60;;;10.30;99.90;;;10.52;80.14;100809.03;4992002;28;20053;-66
2023/04/11 03:26:15;;;;;;;;;;;10.30;99.90;;;10.48;80.18;100820.50;4992748;28;20057;-66
2023/04/11 03:28:44;;;;;;;17.55;5.05;;;10.30;99.90;;;10.58;80.13;100824.84;4991998;28;19921;-66
2023/04/11 03:31:17;;;;;;;16.33;4.63;;;10.40;99.90;;;10.41;79.60;100822.31;4991843;28;20145;-66
2023/04/11 03:33:47;;;;;;;24.30;5.70;;;10.30;99.90;;;10.45;79.75;100815.22;4992007;28;20058;-66
2023/04/11 03:36:16;;;;;;;18.65;5.65;;;10.30;99.90;;;10.34;79.68;100824.97;4994697;28;20125;-66
2023/04/11 03:38:46;;;;;;;18.40;5.75;;;10.10;99.90;;;10.42;79.21;100823.16;4995735;28;20058;-67
2023/04/11 03:41:14;;;;;;;13.57;4.80;;;10.20;99.90;;;10.30;79.18;100854.97;4997017;28;20113;-66
2023/04/11 03:43:43;;;;;;;15.25;5.53;;;10.10;99.90;;;10.21;79.14;100836.47;4996828;28;20100;-67
2023/04/11 03:46:11;;;;;;;17.95;4.97;;;10.10;99.90;;;10.32;78.86;100832.00;4995575;28;20042;-66
2023/04/11 03:48:45;;;;;;;20.50;5.22;;;10.10;99.90;;;10.28;79.06;100836.44;4995314;28;20157;-67
2023/04/11 03:51:14;;;;;;;;;;;10.10;99.90;;;10.37;79.07;100848.75;4995945;28;20046;-66
2023/04/11 03:54:05;;;;;;;24.33;5.63;;;10.10;99.90;;;10.33;78.78;100854.94;4995644;28;19922;-67
2023/04/11 03:56:38;;;;;;;16.08;4.95;;;10.10;99.90;;;10.37;78.25;100856.69;4995448;28;20385;-66
2023/04/11 03:59:10;;;;;;;12.98;5.38;;;10.20;99.90;;;10.23;78.22;100861.13;4996664;28;20050;-66
2023/04/11 04:01:49;;;;;;;12.27;4.47;;;10.10;99.90;;;10.18;77.44;100860.28;4995623;28;20061;-66
2023/04/11 04:04:17;;;;;;;13.65;4.70;;;10.00;99.90;;;10.26;77.26;100858.50;4995199;28;20072;-66
2023/04/11 04:06:55;;;;;;;14.10;4.60;;;10.10;99.90;;;10.18;77.54;100868.22;4995253;28;20042;-66
2023/04/11 04:09:31;;;;;;;19.83;5.78;;;10.00;99.90;;;10.18;77.80;100873.50;4995470;28;20058;-66
2023/04/11 04:12:00;;;;;;;14.53;4.90;;;10.00;99.90;;;10.23;78.48;100879.63;4995197;28;20050;-67
2023/04/11 04:14:44;;;;;;;21.20;5.38;;;10.00;99.90;;;10.16;79.17;100873.50;4995115;28;20396;-66
2023/04/11 04:17:16;;;;;;;17.63;5.30;;;10.00;99.90;;;10.22;79.21;100872.59;4996545;28;20096;-66
2023/04/11 04:19:45;;;;;;;20.08;5.13;;;10.00;99.90;;;10.27;78.82;100870.81;4994534;28;20050;-66
2023/04/11 04:22:16;;;;;;;17.58;5.80;;;10.00;99.90;;;10.20;79.05;100874.38;4995167;28;20046;-67
2023/04/11 04:24:52;;;;;;;13.32;5.25;;;10.00;99.90;;;10.25;79.19;100865.53;4994827;28;20056;-67
2023/04/11 04:27:24;;;;;;;17.65;5.20;;;10.10;99.90;;;10.21;79.19;100869.06;4994844;28;20051;-67
2023/04/11 04:29:55;;;;;;;17.45;5.85;;;10.00;99.90;;;10.38;78.99;100872.53;4994364;28;20058;-66
2023/04/11 04:32:42;;;;;;;13.68;4.70;;;10.20;99.90;;;10.33;79.24;100873.44;4994382;28;20050;-66
2023/04/11 04:35:15;;;;;;;15.60;5.85;;;10.10;99.90;;;10.32;79.83;100877.84;4994673;28;20117;-67
2023/04/11 04:37:45;;;;;;;14.13;5.22;;;10.10;99.90;;;10.30;79.97;100870.81;4994662;28;20424;-66
2023/04/11 04:40:44;;;;;;;17.52;4.80;;;10.10;99.90;;;10.31;80.84;100888.44;4994314;28;20407;-66
2023/04/11 04:43:17;;;;;;;16.73;5.13;;;10.10;99.90;;;10.44;80.85;100893.69;4994414;28;20410;-66
2023/04/11 04:45:55;;;;;;;20.08;5.75;;;10.20;99.90;;;10.43;80.90;100881.31;4994517;28;20048;-67
2023/04/11 04:48:28;;;;;;;19.17;5.82;;;10.30;99.90;;;10.52;81.48;100898.94;4993312;28;20512;-67
2023/04/11 04:50:56;;;;;;;16.70;6.10;;;10.30;99.90;;;10.55;81.57;100896.28;4995730;28;20042;-66
2023/04/11 04:53:25;;;;;;;23.05;5.82;;;10.30;99.90;;;10.63;81.73;100902.41;4994337;28;20039;-67
2023/04/11 04:55:59;;;;;;;23.42;5.97;;;10.40;99.90;;;10.68;81.78;100906.78;4994338;28;20085;-66
2023/04/11 04:58:30;;;;;;;16.15;5.35;;;10.50;99.90;;;10.80;82.28;100900.59;4994158;28;20046;-66
2023/04/11 05:01:02;;;;;;;21.00;5.85;;;10.50;99.90;;;10.80;82.52;100905.88;4994183;28;20073;-66
2023/04/11 05:03:34;;;;;;;23.40;7.00;;;10.50;99.90;;;10.68;83.01;100908.56;4994123;28;20514;-66
2023/04/11 05:06:05;;;;;;;26.55;6.30;;;10.50;99.90;;;10.67;82.82;100890.94;4994191;28;20042;-68
2023/04/11 05:08:35;;;;;;;20.05;6.50;;;10.60;99.90;;;10.65;82.46;100911.22;4993992;28;20046;-66
2023/04/11 05:11:07;;;;;;;18.83;5.63;;;10.50;99.90;;;10.72;82.86;100905.88;4994050;28;20070;-68
2023/04/11 05:13:36;;;;;;;;;;;10.50;99.90;;;10.81;82.59;100923.50;4994432;28;20407;-67
2023/04/11 05:16:07;;;;;;;23.38;6.78;;;10.60;99.90;;;10.74;82.64;100913.84;4993888;28;20012;-68
2023/04/11 05:18:36;;;;;;;28.45;6.82;;;10.60;99.90;;;10.75;83.11;100934.09;4993925;28;20137;-69
2023/04/11 05:21:05;;;;;;;30.48;7.28;;;10.60;99.90;;;10.76;83.50;100927.94;4993754;28;20050;-68
2023/04/11 05:23:38;;;;;;;23.48;6.70;;;10.50;99.90;;;10.77;83.58;100934.97;4993698;28;20050;-68
2023/04/11 05:26:09;;;;;;;26.63;7.95;;;10.50;99.90;;;10.71;83.34;100930.59;4993654;28;20073;-69
2023/04/11 05:28:38;;;;;;;25.98;6.70;;;10.50;99.90;;;10.69;83.05;100942.94;4993660;28;20050;-69
2023/04/11 05:31:11;;;;;;;24.67;6.47;;;10.50;99.90;;;10.77;82.77;100954.38;4993145;28;20061;-68
2023/04/11 05:33:41;;;;;;;24.50;6.93;;;10.50;99.90;;;10.72;82.42;100939.41;4993426;28;20093;-69
2023/04/11 05:36:13;;;;;;;28.77;7.07;;;10.60;99.90;;;10.70;82.72;100946.47;4993742;28;20460;-69
2023/04/11 05:38:43;;;;;;;26.35;6.43;;;10.50;99.90;;;10.66;81.95;100947.38;4993418;28;20535;-69
2023/04/11 05:41:13;;;;;;;25.55;6.43;;;10.50;99.90;;;10.69;81.69;100957.94;4993415;28;20073;-69
2023/04/11 05:43:41;;;;;;;25.20;6.43;;;10.50;99.90;;;10.74;81.62;100956.16;4994547;28;20050;-69
2023/04/11 05:46:11;;;;;;;27.27;5.78;;;10.50;99.90;;;10.77;81.39;100954.38;4993161;28;20069;-69
2023/04/11 05:48:40;;;;;;;23.95;5.25;;;10.60;99.90;;;10.73;80.79;100965.88;4992950;28;20259;-69
2023/04/11 05:51:09;;;;;;;24.90;6.97;;;10.50;99.90;;;10.69;80.41;100961.47;4994547;28;20097;-69
2023/04/11 05:53:38;;;;;;;25.13;6.43;;;10.50;99.90;;;10.68;80.54;100964.13;4993092;28;20054;-69
2023/04/11 05:56:07;;;;;;;30.77;7.15;;;10.50;99.90;;;10.72;80.37;100955.28;4993417;28;20231;-69
2023/04/11 05:58:37;;;;;;;18.87;5.67;;;10.60;99.90;;;10.76;79.37;100964.97;4994374;28;20089;-69
2023/04/11 06:01:06;;;;;;;26.17;6.10;;;10.60;99.90;;;10.78;79.18;100976.44;4994395;28;20068;-69
2023/04/11 06:03:34;;;;;;;19.50;5.85;;;10.60;99.90;;;10.95;79.13;100990.47;4992942;28;20377;-70
2023/04/11 06:06:03;;;;;;;30.60;6.60;;;10.70;99.90;;;10.98;78.83;100987.81;4993703;28;20049;-69
2023/04/11 06:08:33;;;;;;;24.45;5.97;;;10.70;99.90;;;11.27;78.42;100977.97;4993779;28;20038;-69
2023/04/11 06:11:01;;;;;;;17.92;6.50;;;11.00;99.90;;;11.32;77.25;100985.88;4994188;28;20057;-69
2023/04/11 06:13:29;;;;;;;29.15;7.28;;;11.10;99.90;;;11.39;77.76;100992.91;4994091;28;20050;-69
2023/04/11 06:15:59;;;;;;;21.25;6.50;;;11.10;99.90;;;11.44;77.32;100991.97;4993859;28;20057;-69
2023/04/11 06:18:28;;;;;;;24.58;6.68;;;11.20;99.90;;;11.44;77.28;100997.28;4994031;28;20412;-71
2023/04/11 06:20:56;;;;;;;16.25;5.57;;;11.20;99.90;;;11.39;77.35;100990.25;4994339;28;20100;-67
2023/04/11 06:23:25;;;;;;;27.38;6.65;;;11.20;99.90;;;11.26;76.90;100994.75;4993607;28;20514;-70
2023/04/11 06:25:53;;;;;;;19.48;6.57;;;11.10;99.90;;;11.30;77.07;100985.91;4993889;28;20121;-70
2023/04/11 06:28:21;;;;;;;25.65;6.65;;;11.10;99.90;;;11.29;77.00;100999.13;4993895;28;20085;-69
2023/04/11 06:30:50;;;;;;;19.15;5.97;;;11.10;99.90;;;11.36;77.25;100996.44;4993758;28;20443;-69
2023/04/11 06:33:20;;;;;;;26.02;6.53;;;11.10;99.90;;;11.39;77.27;101003.50;4993547;28;20061;-70
2023/04/11 06:35:49;;;;;;;24.35;6.43;;;11.10;99.90;;;11.60;77.21;101001.59;4993495;28;20045;-69
2023/04/11 06:38:17;;;;;;;19.52;5.90;;;11.30;99.90;;;11.74;77.01;101007.72;4993487;28;20045;-69
2023/04/11 06:40:47;;;;;;;27.67;6.50;;;11.50;99.90;;;11.81;75.51;101015.63;4993903;28;20058;-69
2023/04/11 06:43:16;;;;;;;17.20;5.53;;;11.60;99.90;;;11.91;75.16;101019.94;4992402;28;20046;-68
2023/04/11 06:45:44;;;;;;;20.30;6.45;;;11.60;99.90;;;11.96;73.27;101008.44;4992297;28;20304;-68
2023/04/11 06:48:12;;;;;;;20.42;6.07;;;11.70;99.90;;;12.10;72.94;101005.69;4993374;28;20042;-68
2023/04/11 06:50:42;;;;;;;24.52;6.63;;;11.90;99.90;;;12.18;72.19;101025.03;4993283;28;20125;-68
2023/04/11 06:53:10;;;;;;;20.30;5.83;;;11.90;99.90;;;12.00;71.26;101026.06;4993724;28;20575;-68
2023/04/11 06:55:39;;;;;;;23.58;5.75;;;11.80;99.90;;;11.97;71.15;101030.50;4993218;28;20384;-69
2023/04/11 06:58:07;;;;;;;21.25;6.60;;;11.80;99.90;;;12.06;71.09;101041.06;4992197;28;20050;-69
2023/04/11 07:00:35;;;;;;;22.35;6.28;;;11.80;99.90;;;12.08;71.73;101044.59;4993232;28;20074;-69
2023/04/11 07:03:06;;;;;;;18.23;5.45;;;11.80;99.90;;;12.17;68.99;101049.81;4993383;28;20508;-69
2023/04/11 07:05:35;;;;;;;18.50;6.30;;;11.90;99.90;;;12.05;69.01;101042.84;4993383;28;20089;-69
2023/04/11 07:08:08;;;;;;;22.63;5.95;;;11.80;99.90;;;12.32;69.20;101062.94;4992268;28;20050;-69
2023/04/11 07:10:36;;;;;;;23.73;6.20;;;12.00;99.90;;;12.50;69.06;101046.88;4993850;28;20573;-69
2023/04/11 07:13:04;;;;;;;24.90;6.22;;;12.20;99.90;;;12.43;68.39;101047.81;4997160;28;20043;-69
2023/04/11 07:15:33;;;;;;;18.20;5.95;;;12.30;99.90;;;12.54;68.64;101059.22;4997065;28;20500;-70
2023/04/11 07:18:02;;;;;;;21.05;6.35;;;12.30;99.90;;;12.60;68.00;101067.13;4997024;28;20050;-70
2023/04/11 07:20:31;;;;;;;20.85;6.85;;;12.40;99.90;;;12.65;68.83;101075.91;4997024;28;20506;-70
2023/04/11 07:23:00;;;;;;;18.42;5.80;;;12.40;99.90;;;12.56;68.77;101066.25;4997281;28;20050;-69
2023/04/11 07:25:32;;;;;;;22.40;6.05;;;12.40;99.90;;;12.48;69.15;101068.13;4997170;28;20042;-69
2023/04/11 07:28:01;;;;;;;27.73;6.57;;;12.30;99.90;;;12.14;69.34;101024.19;4997014;28;20121;-71
2023/04/11 07:30:29;;;;;;;22.98;6.85;;;12.20;99.90;;;12.41;69.33;101076.13;4995691;28;20145;-69
2023/04/11 07:32:57;;;;;;;21.52;6.28;;;12.20;99.90;;;12.41;69.30;101063.75;4997111;28;20046;-68
2023/04/11 07:35:27;;;;;;;23.75;6.50;;;12.20;99.90;;;12.42;69.47;101077.88;4996681;28;20046;-67
2023/04/11 07:37:57;;;;;;;18.75;6.10;;;12.20;99.90;;;12.45;69.68;101094.66;4996714;28;20077;-67
2023/04/11 07:40:25;;;;;;;19.95;6.20;;;12.20;99.90;;;12.50;70.13;101076.06;4997036;28;20117;-66
2023/04/11 07:42:56;;;;;;;16.30;6.00;;;12.30;99.90;;;12.50;68.70;101095.47;4996830;28;20046;-63
2023/04/11 07:45:25;;;;;;;17.27;5.80;;;12.30;99.90;;;12.40;68.07;101091.19;4996537;28;20042;-68
2023/04/11 07:47:53;;;;;;;21.00;5.85;;;12.20;99.90;;;12.75;68.35;101098.81;4996611;28;20072;-67
2023/04/11 07:50:21;;;;;;;21.25;6.20;;;12.40;99.90;;;13.02;67.73;101103.84;4996467;28;20073;-68
2023/04/11 07:52:50;;;;;;;19.83;5.78;;;12.70;99.90;;;12.93;66.53;101103.94;4996700;28;20050;-69
2023/04/11 07:55:19;;;;;;;20.55;5.35;;;12.80;99.90;;;12.46;68.14;101114.13;4995309;28;20081;-69
2023/04/11 07:57:47;;;;;;;22.40;6.50;;;12.30;99.90;;;12.32;67.49;101108.03;4996457;28;20117;-69
2023/04/11 08:00:22;;;;;;;18.63;6.07;;;12.10;99.90;;;12.23;68.29;101111.63;4996626;28;20088;-68
2023/04/11 08:02:51;;;;;;;23.83;6.57;;;12.00;99.90;;;12.31;67.20;101119.56;4996996;28;20416;-68
2023/04/11 08:05:20;;;;;;;23.58;6.35;;;12.00;99.90;;;12.50;67.20;101114.06;4996375;28;20081;-70
2023/04/11 08:07:49;;;;;;;20.90;5.78;;;12.20;99.90;;;12.52;65.98;101117.56;4996347;28;20477;-70
2023/04/11 08:10:17;;;;;;;17.98;5.80;;;12.30;99.90;;;12.74;65.86;101136.84;4996439;28;20046;-70
2023/04/11 08:12:46;;;;;;;17.38;5.90;;;12.50;99.90;;;12.61;66.36;101133.44;4995042;28;20563;-70
2023/04/11 08:15:14;;;;;;;24.17;6.70;;;12.40;99.90;;;12.43;66.63;101130.03;4996167;28;20042;-70
2023/04/11 08:17:44;;;;;;;17.95;5.32;;;12.40;99.90;;;12.38;65.82;101123.91;4996578;28;20046;-69
2023/04/11 08:20:13;;;;;;;19.97;5.40;;;12.30;99.90;;;12.05;65.72;101129.44;4996280;28;20089;-69
2023/04/11 08:22:43;;;;;;;17.88;5.38;;;11.90;99.90;;;12.02;65.70;101103.81;4995711;28;20077;-70
2023/04/11 08:25:14;;;;;;;18.75;6.50;;;11.90;99.90;;;12.22;66.54;101149.66;4996417;28;20050;-70
2023/04/11 08:27:42;;;;;;;16.90;5.00;;;12.00;99.90;;;12.01;66.68;101151.56;4994812;28;20157;-70
2023/04/11 08:30:11;;;;;;;17.88;5.78;;;11.90;99.90;;;12.10;66.54;101164.78;4995587;28;20060;-70
2023/04/11 08:32:41;;;;;;;17.27;5.55;;;11.80;99.90;;;12.53;64.44;101159.16;4995675;28;20129;-70
2023/04/11 08:35:11;;;;;;;16.92;5.30;;;12.20;99.90;;;12.77;64.23;101167.81;4996495;28;20042;-69
2023/04/11 08:37:40;;;;;;;23.42;5.72;;;12.50;99.90;;;12.72;64.11;101166.97;4995938;28;20396;-69
2023/04/11 08:40:10;;;;;;;14.65;4.72;;;12.50;99.90;;;12.67;63.99;101161.69;4996160;28;20050;-69
2023/04/11 08:42:38;;;;;;;18.90;5.78;;;12.50;99.90;;;12.80;62.88;101150.06;4995836;28;20050;-69
2023/04/11 08:45:09;;;;;;;18.02;5.47;;;12.60;99.90;;;12.75;61.97;101166.94;4995387;28;20499;-72
2023/04/11 08:47:37;;;;;;;19.00;5.35;;;12.60;99.90;;;12.86;61.33;101160.66;4995681;28;20134;-70
2023/04/11 08:50:07;;;;;;;16.42;5.68;;;12.60;99.90;;;13.23;61.75;101163.84;4995941;28;20453;-70
2023/04/11 08:52:39;;;;;;;15.00;5.38;;;12.90;99.90;;;13.72;60.12;101174.81;4995524;28;20042;-70
2023/04/11 08:55:09;;;;;;;18.20;5.38;;;13.40;99.90;;;13.62;58.39;101170.50;4995398;28;20043;-70
2023/04/11 08:57:37;;;;;;;14.60;5.53;;;13.40;99.90;;;13.42;58.73;101168.97;4994144;28;20073;-70
2023/04/11 09:00:12;;;;;;;20.70;5.38;;;13.30;99.90;;;13.32;58.88;101164.63;4995350;28;20043;-70
2023/04/11 09:03:00;;;;;;;12.35;5.07;;;13.20;99.90;;;13.59;59.41;101174.94;4995257;28;20496;-70
2023/04/11 09:05:31;;;;;;;14.05;5.18;;;13.30;99.90;;;14.07;58.27;101170.78;4993981;28;20424;-70
2023/04/11 09:08:06;;;;;;;18.85;5.95;;;13.80;99.90;;;14.24;56.86;101176.75;4995618;28;20110;-70
2023/04/11 09:10:35;;;;;;;19.65;5.05;;;14.00;99.90;;;14.53;56.96;101184.34;4995259;28;20444;-70
2023/04/11 09:13:21;;;;;;;15.43;4.93;;;14.30;99.90;;;14.32;55.01;101163.38;4994984;28;20129;-70
2023/04/11 09:16:05;;;;;;;16.77;5.35;;;14.20;99.90;;;14.42;54.19;101175.63;4994795;28;20042;-70
2023/04/11 09:18:36;;;;;;;15.02;5.60;;;14.30;99.90;;;14.38;53.85;101179.25;4994895;28;20042;-70
2023/04/11 09:21:06;;;;;;;15.95;4.95;;;14.20;99.90;;;13.98;55.18;101165.59;4995260;28;20518;-70
2023/04/11 09:23:37;;;;;;;16.50;5.93;;;13.90;99.90;;;13.88;56.82;101169.25;4994874;28;20534;-70
2023/04/11 09:26:07;;;;;;;17.95;5.82;;;13.70;99.90;;;14.07;58.27;101191.19;4994590;28;20498;-71
2023/04/11 09:28:43;;;;;;;16.42;5.45;;;13.80;99.90;;;14.49;57.12;101193.28;4994631;28;20043;-70
2023/04/11 09:31:12;;;;;;;16.98;6.15;;;14.20;99.90;;;14.78;55.78;101196.34;4993277;28;20108;-70
2023/04/11 09:33:53;;;;;;;16.75;5.28;;;14.50;99.90;;;14.92;56.17;101188.13;4994033;28;20043;-70
2023/04/11 09:36:23;;;;;;;12.65;6.15;;;14.70;99.90;;;14.94;55.09;101187.19;4994900;28;20042;-70
2023/04/11 09:38:54;;;;;;;12.07;4.43;;;14.80;99.90;;;15.03;54.36;101195.03;4994788;28;20492;-70
2023/04/11 09:41:34;;;;;;;15.13;5.25;;;14.80;99.90;;;14.74;53.79;101194.66;4994842;28;20129;-70
2023/04/11 09:44:03;;;;;;;18.38;6.63;;;14.60;99.90;;;14.92;53.60;101196.13;4994753;28;20105;-70
2023/04/11 09:46:31;;;;;;;11.75;5.45;;;14.60;99.90;;;14.92;53.66;101190.81;4994256;28;20043;-70
2023/04/11 09:49:01;;;;;;;13.23;5.10;;;14.70;99.90;;;15.01;53.38;101195.97;4994234;28;20043;-70
2023/04/11 09:51:30;;;;;;;16.35;5.47;;;14.80;99.90;;;15.11;52.61;101186.91;4994954;28;20046;-70
2023/04/11 09:54:05;;;;;;;14.30;5.45;;;14.90;99.90;;;15.13;51.79;101209.06;4993167;28;20571;-71
2023/04/11 09:56:34;;;;;;;13.63;5.53;;;14.90;99.90;;;14.76;51.72;101211.47;4994200;28;20054;-70
2023/04/11 09:59:04;;;;;;;11.48;4.75;;;14.60;99.90;;;14.07;51.87;101090.97;4993965;28;20046;-71
2023/04/11 10:01:33;;;;;;;13.23;5.00;;;14.60;99.90;;;14.52;53.20;101195.88;4994197;28;20129;-70
2023/04/11 10:04:03;;;;;;;15.85;5.18;;;14.30;99.90;;;14.32;52.67;101200.63;4994048;28;20073;-70
2023/04/11 10:06:38;;;;;;;14.98;4.63;;;14.10;99.90;;;14.04;51.88;101183.25;4994019;28;20053;-70
2023/04/11 10:09:11;;;;;;;18.55;5.78;;;13.90;99.90;;;14.48;53.36;101192.38;4994303;28;20039;-70
2023/04/11 10:11:42;;;;;;;18.92;5.10;;;14.20;99.90;;;14.08;54.01;101118.47;4994011;28;20066;-70
2023/04/11 10:14:42;;;;;;;12.13;4.90;;;14.30;99.90;;;14.75;53.98;101195.53;4994136;28;20092;-70
2023/04/11 10:17:18;;;;;;;12.15;5.32;;;14.40;99.90;;;14.85;53.64;101174.03;4992860;28;20479;-70
2023/04/11 10:19:55;;;;;;;13.65;5.22;;;14.70;99.90;;;14.75;52.92;101201.72;4993877;28;20038;-71
2023/04/11 10:23:00;;;;;;;14.90;5.53;;;14.70;99.90;;;15.10;53.04;101195.78;4993730;28;20074;-70